Edzard Schulte — 2CVX9 — position and weather

sailwx.info

Track history (hours):
 
Tides and Currents Weather Stations Pressure Air Temp Water Temp Dewpoint Dewpoint Depression Visibility Wind Speed Wind Dir Waves Ship Positions

Edzard Schulte

Last reported at 2014-Sep-02 03:05 UTC. Time now 2014-Sep-02 19:06 UTC.
Position N 50°32' E 000°02'.

Length 145 m; draft 8.2 m.

Type: Tanker. MMSI: 235076245.

Date/timePositionNaut miles runAvg speedWind from/ knotsBaromVisibWave heightAir tempDewpointWater temp
2014-Sep-02 03:05N 50°32' E 000°02'712.1
2014-Sep-02 02:32N 50°33' E 000°12'1111.5
2014-Sep-02 01:33N 50°37' E 000°29'1111.3
2014-Sep-02 00:33N 50°42' E 000°44'1212.0
2014-Sep-01 23:33N 50°49' E 000°60'1413.3
2014-Sep-01 22:28N 50°59' E 001°17'1313.9
2014-Sep-01 21:33N 51°07' E 001°33'1312.8
2014-Sep-01 20:33N 51°16' E 001°47'1211.9
2014-Sep-01 19:34N 51°26' E 001°58'1111.0
2014-Sep-01 18:33N 51°35' E 002°08'1110.7
2014-Sep-01 17:33N 51°43' E 002°20'4912.0
2014-Sep-01 13:24N 52°19' E 003°14'1312.6
2014-Sep-01 12:24N 52°27' E 003°31'1312.5
2014-Sep-01 11:22N 52°31' E 003°51'1012.2
2014-Sep-01 10:33N 52°31' E 004°07'1211.8
2014-Sep-01 09:33N 52°29' E 004°26'7 6.5
2014-Sep-01 08:33N 52°28' E 004°37'5 5.1
2014-Sep-01 07:34N 52°26' E 004°44'1 1.1
2014-Sep-01 06:31N 52°25' E 004°45'0 0.0
2014-Sep-01 05:31N 52°25' E 004°45'0 0.0
2014-Sep-01 04:31N 52°25' E 004°45'0 0.0
2014-Sep-01 03:28N 52°25' E 004°45'0 0.0
2014-Sep-01 02:31N 52°25' E 004°45'0 0.0
2014-Sep-01 01:31N 52°25' E 004°45'1 0.0
2014-Aug-30 14:18N 52°26' E 004°45'5 7.1
2014-Aug-30 13:33N 52°28' E 004°37'4 3.8
2014-Aug-30 12:33N 52°28' E 004°31'10 9.7
2014-Aug-30 11:33N 52°29' E 004°15'8 7.6
2014-Aug-30 10:33N 52°27' E 004°03'0 0.2
2014-Aug-30 09:31N 52°27' E 004°03'0 0.0
2014-Aug-30 08:31N 52°27' E 004°03'0 0.0
2014-Aug-30 07:31N 52°27' E 004°03'0 0.0
2014-Aug-30 06:31N 52°27' E 004°03'0 0.0
2014-Aug-30 05:31N 52°27' E 004°03'0 0.0
2014-Aug-30 04:31N 52°27' E 004°03'0 0.0
2014-Aug-30 03:31N 52°27' E 004°03'0 0.0
2014-Aug-30 02:31N 52°27' E 004°03'0 0.0
2014-Aug-30 01:31N 52°27' E 004°03'0 0.0
2014-Aug-30 00:31N 52°27' E 004°03'0 0.0
2014-Aug-29 23:31N 52°27' E 004°03'0 0.0
2014-Aug-29 22:31N 52°27' E 004°03'0 0.0
2014-Aug-29 21:31N 52°27' E 004°03'0 0.0
2014-Aug-29 20:31N 52°27' E 004°03'0 0.0
2014-Aug-29 19:31N 52°27' E 004°03'0 0.0
2014-Aug-29 18:34N 52°27' E 004°03'2 1.8
2014-Aug-29 17:33N 52°28' E 004°00'4611.1
2014-Aug-29 13:23N 51°48' E 003°21'0 0.2
2014-Aug-29 12:17N 51°48' E 003°21'0 0.0
2014-Aug-29 02:25N 51°48' E 003°21'0 0.0
2014-Aug-29 01:25N 51°48' E 003°21'0 0.0
2014-Aug-29 00:31N 51°48' E 003°21'0 0.1
2014-Aug-28 23:25N 51°48' E 003°21'0 0.1
2014-Aug-28 22:31N 51°48' E 003°21'0 0.1
2014-Aug-28 21:25N 51°48' E 003°21'0 0.0
2014-Aug-28 17:13N 51°48' E 003°21'0 0.0
2014-Aug-28 07:31N 51°48' E 003°21'0 0.0
2014-Aug-28 06:16N 51°48' E 003°21'0 0.0
2014-Aug-28 05:22N 51°48' E 003°21'0 0.0
2014-Aug-28 04:33N 51°48' E 003°21'0 0.0
2014-Aug-28 03:33N 51°48' E 003°21'0 0.0
2014-Aug-28 02:33N 51°48' E 003°21'0 0.0
2014-Aug-28 01:32N 51°48' E 003°21'0 0.2
2014-Aug-28 00:32N 51°48' E 003°21'0 0.0
2014-Aug-27 23:29N 51°48' E 003°21'1 1.5
2014-Aug-27 22:32N 51°47' E 003°19'7 7.6
2014-Aug-27 21:33N 51°40' E 003°18'9 8.8
2014-Aug-27 20:33N 51°32' E 003°26'9 8.9
2014-Aug-27 19:34N 51°26' E 003°36'1010.0
2014-Aug-27 18:34N 51°20' E 003°49'1 0.7
2014-Aug-27 17:34N 51°19' E 003°49'0 0.0
2014-Aug-27 16:33N 51°19' E 003°49'0 0.0
2014-Aug-27 15:33N 51°19' E 003°49'0 0.0
2014-Aug-27 14:33N 51°19' E 003°49'0 0.0
2014-Aug-27 13:33N 51°19' E 003°49'2 1.5
2014-Aug-27 12:33N 51°18' E 003°50'6 5.7
2014-Aug-27 11:34N 51°12' E 003°48'4 3.7
2014-Aug-27 10:33N 51°09' E 003°47'0 0.0
2014-Aug-27 09:33N 51°09' E 003°47'0 0.0
2014-Aug-27 08:33N 51°09' E 003°47'0 0.0
2014-Aug-27 07:33N 51°09' E 003°47'0 0.0
2014-Aug-27 06:33N 51°09' E 003°47'0 0.0
2014-Aug-27 05:33N 51°09' E 003°47'0 0.0
2014-Aug-27 04:33N 51°09' E 003°47'0 0.0
2014-Aug-27 03:34N 51°09' E 003°47'0 0.0
2014-Aug-27 02:33N 51°09' E 003°47'0 0.0
2014-Aug-27 01:33N 51°09' E 003°47'0 0.0
2014-Aug-27 00:33N 51°09' E 003°47'0 0.0
2014-Aug-26 23:33N 51°09' E 003°47'0 0.0
2014-Aug-26 22:33N 51°09' E 003°47'0 0.0
2014-Aug-26 21:33N 51°09' E 003°47'0 0.0
2014-Aug-26 20:33N 51°09' E 003°47'0 0.0
2014-Aug-26 19:33N 51°09' E 003°47'0 0.0
2014-Aug-26 18:33N 51°09' E 003°47'0 0.0
2014-Aug-26 17:34N 51°09' E 003°47'0 0.0
2014-Aug-26 16:33N 51°09' E 003°47'0 0.0
2014-Aug-26 15:34N 51°09' E 003°47'0 0.0
2014-Aug-26 04:29N 51°09' E 003°47'5 5.4
2014-Aug-26 03:34N 51°14' E 003°48'6 5.8
2014-Aug-26 02:34N 51°20' E 003°49'1 1.4
2014-Aug-26 01:33N 51°21' E 003°48'7 7.2
2014-Aug-26 00:33N 51°26' E 003°40'6 6.3
2014-Aug-25 23:33N 51°25' E 003°30'8 8.2
2014-Aug-25 22:33N 51°24' E 003°17'8 8.4
2014-Aug-25 21:33N 51°24' E 003°04'9 9.1
2014-Aug-25 20:33N 51°22' E 002°50'7 7.4
2014-Aug-25 19:33N 51°22' E 002°38'3 3.0
2014-Aug-25 18:28N 51°20' E 002°34'0 0.0
2014-Aug-25 17:28N 51°20' E 002°34'0 0.0
2014-Aug-25 16:31N 51°20' E 002°34'0 0.0
2014-Aug-25 15:31N 51°20' E 002°34'0 0.0
2014-Aug-25 14:31N 51°20' E 002°34'0 0.0
2014-Aug-25 13:31N 51°20' E 002°34'0 0.0
2014-Aug-25 12:31N 51°20' E 002°34'1 1.1
2014-Aug-25 11:33N 51°21' E 002°34'9 8.2
2014-Aug-25 10:28N 51°19' E 002°20'910.3
2014-Aug-25 09:33N 51°14' E 002°06'10 9.9
2014-Aug-25 08:33N 51°10' E 001°52'10 9.5
2014-Aug-25 07:32N 51°04' E 001°40'9 9.3
2014-Aug-25 06:33N 50°58' E 001°29'3210.8
2014-Aug-25 03:33N 50°31' E 001°00'1211.9
2014-Aug-25 02:33N 50°28' E 000°42'1211.9
2014-Aug-25 01:33N 50°24' E 000°24'  
Track history (hours):
 
Tides and Currents Weather Stations Pressure Air Temp Water Temp Dewpoint Dewpoint Depression Visibility Wind Speed Wind Dir Waves Ship Positions

Edzard Schulte

Last reported at 2014-Sep-02 03:05 UTC. Time now 2014-Sep-02 19:06 UTC.
Position N 50°32' E 000°02'.

Length 145 m; draft 8.2 m.

Type: Tanker. MMSI: 235076245.

Date/timePositionNaut miles runAvg speedWind from/ knotsBaromVisibWave heightAir tempDewpointWater temp
2014-Sep-02 03:05N 50°32' E 000°02'712.1
2014-Sep-02 02:32N 50°33' E 000°12'1111.5
2014-Sep-02 01:33N 50°37' E 000°29'1111.3
2014-Sep-02 00:33N 50°42' E 000°44'1212.0
2014-Sep-01 23:33N 50°49' E 000°60'1413.3
2014-Sep-01 22:28N 50°59' E 001°17'1313.9
2014-Sep-01 21:33N 51°07' E 001°33'1312.8
2014-Sep-01 20:33N 51°16' E 001°47'1211.9
2014-Sep-01 19:34N 51°26' E 001°58'1111.0
2014-Sep-01 18:33N 51°35' E 002°08'1110.7
2014-Sep-01 17:33N 51°43' E 002°20'4912.0
2014-Sep-01 13:24N 52°19' E 003°14'1312.6
2014-Sep-01 12:24N 52°27' E 003°31'1312.5
2014-Sep-01 11:22N 52°31' E 003°51'1012.2
2014-Sep-01 10:33N 52°31' E 004°07'1211.8
2014-Sep-01 09:33N 52°29' E 004°26'7 6.5
2014-Sep-01 08:33N 52°28' E 004°37'5 5.1
2014-Sep-01 07:34N 52°26' E 004°44'1 1.1
2014-Sep-01 06:31N 52°25' E 004°45'0 0.0
2014-Sep-01 05:31N 52°25' E 004°45'0 0.0
2014-Sep-01 04:31N 52°25' E 004°45'0 0.0
2014-Sep-01 03:28N 52°25' E 004°45'0 0.0
2014-Sep-01 02:31N 52°25' E 004°45'0 0.0
2014-Sep-01 01:31N 52°25' E 004°45'1 0.0
2014-Aug-30 14:18N 52°26' E 004°45'5 7.1
2014-Aug-30 13:33N 52°28' E 004°37'4 3.8
2014-Aug-30 12:33N 52°28' E 004°31'10 9.7
2014-Aug-30 11:33N 52°29' E 004°15'8 7.6
2014-Aug-30 10:33N 52°27' E 004°03'0 0.2
2014-Aug-30 09:31N 52°27' E 004°03'0 0.0
2014-Aug-30 08:31N 52°27' E 004°03'0 0.0
2014-Aug-30 07:31N 52°27' E 004°03'0 0.0
2014-Aug-30 06:31N 52°27' E 004°03'0 0.0
2014-Aug-30 05:31N 52°27' E 004°03'0 0.0
2014-Aug-30 04:31N 52°27' E 004°03'0 0.0
2014-Aug-30 03:31N 52°27' E 004°03'0 0.0
2014-Aug-30 02:31N 52°27' E 004°03'0 0.0
2014-Aug-30 01:31N 52°27' E 004°03'0 0.0
2014-Aug-30 00:31N 52°27' E 004°03'0 0.0
2014-Aug-29 23:31N 52°27' E 004°03'0 0.0
2014-Aug-29 22:31N 52°27' E 004°03'0 0.0
2014-Aug-29 21:31N 52°27' E 004°03'0 0.0
2014-Aug-29 20:31N 52°27' E 004°03'0 0.0
2014-Aug-29 19:31N 52°27' E 004°03'0 0.0
2014-Aug-29 18:34N 52°27' E 004°03'2 1.8
2014-Aug-29 17:33N 52°28' E 004°00'4611.1
2014-Aug-29 13:23N 51°48' E 003°21'0 0.2
2014-Aug-29 12:17N 51°48' E 003°21'0 0.0
2014-Aug-29 02:25N 51°48' E 003°21'0 0.0
2014-Aug-29 01:25N 51°48' E 003°21'0 0.0
2014-Aug-29 00:31N 51°48' E 003°21'0 0.1
2014-Aug-28 23:25N 51°48' E 003°21'0 0.1
2014-Aug-28 22:31N 51°48' E 003°21'0 0.1
2014-Aug-28 21:25N 51°48' E 003°21'0 0.0
2014-Aug-28 17:13N 51°48' E 003°21'0 0.0
2014-Aug-28 07:31N 51°48' E 003°21'0 0.0
2014-Aug-28 06:16N 51°48' E 003°21'0 0.0
2014-Aug-28 05:22N 51°48' E 003°21'0 0.0
2014-Aug-28 04:33N 51°48' E 003°21'0 0.0
2014-Aug-28 03:33N 51°48' E 003°21'0 0.0
2014-Aug-28 02:33N 51°48' E 003°21'0 0.0
2014-Aug-28 01:32N 51°48' E 003°21'0 0.2
2014-Aug-28 00:32N 51°48' E 003°21'0 0.0
2014-Aug-27 23:29N 51°48' E 003°21'1 1.5
2014-Aug-27 22:32N 51°47' E 003°19'7 7.6
2014-Aug-27 21:33N 51°40' E 003°18'9 8.8
2014-Aug-27 20:33N 51°32' E 003°26'9 8.9
2014-Aug-27 19:34N 51°26' E 003°36'1010.0
2014-Aug-27 18:34N 51°20' E 003°49'1 0.7
2014-Aug-27 17:34N 51°19' E 003°49'0 0.0
2014-Aug-27 16:33N 51°19' E 003°49'0 0.0
2014-Aug-27 15:33N 51°19' E 003°49'0 0.0
2014-Aug-27 14:33N 51°19' E 003°49'0 0.0
2014-Aug-27 13:33N 51°19' E 003°49'2 1.5
2014-Aug-27 12:33N 51°18' E 003°50'6 5.7
2014-Aug-27 11:34N 51°12' E 003°48'4 3.7
2014-Aug-27 10:33N 51°09' E 003°47'0 0.0
2014-Aug-27 09:33N 51°09' E 003°47'0 0.0
2014-Aug-27 08:33N 51°09' E 003°47'0 0.0
2014-Aug-27 07:33N 51°09' E 003°47'0 0.0
2014-Aug-27 06:33N 51°09' E 003°47'0 0.0
2014-Aug-27 05:33N 51°09' E 003°47'0 0.0
2014-Aug-27 04:33N 51°09' E 003°47'0 0.0
2014-Aug-27 03:34N 51°09' E 003°47'0 0.0
2014-Aug-27 02:33N 51°09' E 003°47'0 0.0
2014-Aug-27 01:33N 51°09' E 003°47'0 0.0
2014-Aug-27 00:33N 51°09' E 003°47'0 0.0
2014-Aug-26 23:33N 51°09' E 003°47'0 0.0
2014-Aug-26 22:33N 51°09' E 003°47'0 0.0
2014-Aug-26 21:33N 51°09' E 003°47'0 0.0
2014-Aug-26 20:33N 51°09' E 003°47'0 0.0
2014-Aug-26 19:33N 51°09' E 003°47'0 0.0
2014-Aug-26 18:33N 51°09' E 003°47'0 0.0
2014-Aug-26 17:34N 51°09' E 003°47'0 0.0
2014-Aug-26 16:33N 51°09' E 003°47'0 0.0
2014-Aug-26 15:34N 51°09' E 003°47'0 0.0
2014-Aug-26 04:29N 51°09' E 003°47'5 5.4
2014-Aug-26 03:34N 51°14' E 003°48'6 5.8
2014-Aug-26 02:34N 51°20' E 003°49'1 1.4
2014-Aug-26 01:33N 51°21' E 003°48'7 7.2
2014-Aug-26 00:33N 51°26' E 003°40'6 6.3
2014-Aug-25 23:33N 51°25' E 003°30'8 8.2
2014-Aug-25 22:33N 51°24' E 003°17'8 8.4
2014-Aug-25 21:33N 51°24' E 003°04'9 9.1
2014-Aug-25 20:33N 51°22' E 002°50'7 7.4
2014-Aug-25 19:33N 51°22' E 002°38'3 3.0
2014-Aug-25 18:28N 51°20' E 002°34'0 0.0
2014-Aug-25 17:28N 51°20' E 002°34'0 0.0
2014-Aug-25 16:31N 51°20' E 002°34'0 0.0
2014-Aug-25 15:31N 51°20' E 002°34'0 0.0
2014-Aug-25 14:31N 51°20' E 002°34'0 0.0
2014-Aug-25 13:31N 51°20' E 002°34'0 0.0
2014-Aug-25 12:31N 51°20' E 002°34'1 1.1
2014-Aug-25 11:33N 51°21' E 002°34'9 8.2
2014-Aug-25 10:28N 51°19' E 002°20'910.3
2014-Aug-25 09:33N 51°14' E 002°06'10 9.9
2014-Aug-25 08:33N 51°10' E 001°52'10 9.5
2014-Aug-25 07:32N 51°04' E 001°40'9 9.3
2014-Aug-25 06:33N 50°58' E 001°29'3210.8
2014-Aug-25 03:33N 50°31' E 001°00'1211.9
2014-Aug-25 02:33N 50°28' E 000°42'1211.9
2014-Aug-25 01:33N 50°24' E 000°24'  

Dump ship's entire track history